createdAt,value
2023-02-04T00:02:03.109Z,66.00
2023-02-04T00:04:31.578Z,66.00
2023-02-04T00:07:01.302Z,66.10
2023-02-04T00:09:29.780Z,65.80
2023-02-04T00:11:58.178Z,66.00
2023-02-04T00:14:26.572Z,66.00
2023-02-04T00:16:54.926Z,66.20
2023-02-04T00:19:23.520Z,66.00
2023-02-04T00:21:51.863Z,65.90
2023-02-04T00:24:24.590Z,65.90
2023-02-04T00:26:52.958Z,65.80
2023-02-04T00:29:23.014Z,66.00
2023-02-04T00:31:51.378Z,66.00
2023-02-04T00:34:21.820Z,66.00
2023-02-04T00:36:53.069Z,66.00
2023-02-04T00:39:29.147Z,65.90
2023-02-04T00:41:57.453Z,65.80
2023-02-04T00:44:25.880Z,66.00
2023-02-04T00:46:56.309Z,66.00
2023-02-04T00:52:10.147Z,65.90
2023-02-04T00:54:40.126Z,65.80
2023-02-04T00:57:08.527Z,65.70
2023-02-04T00:59:36.955Z,65.80
2023-02-04T01:02:05.488Z,65.90
2023-02-04T01:04:34.517Z,65.90
2023-02-04T01:07:02.955Z,66.00
2023-02-04T01:09:31.208Z,66.20
2023-02-04T01:12:00.826Z,66.30
2023-02-04T01:14:29.034Z,66.50
2023-02-04T01:16:57.334Z,66.60
2023-02-04T01:19:25.609Z,66.70
2023-02-04T01:21:53.948Z,66.60
2023-02-04T01:24:22.237Z,66.50
2023-02-04T01:26:50.483Z,66.50
2023-02-04T01:29:20.158Z,66.40
2023-02-04T01:31:48.378Z,66.20
2023-02-04T01:34:16.693Z,66.40
2023-02-04T01:36:44.916Z,66.40
2023-02-04T01:39:13.802Z,66.40
2023-02-04T01:41:42.161Z,66.40
2023-02-04T01:44:10.671Z,66.50
2023-02-04T01:46:40.455Z,66.50
2023-02-04T01:49:08.912Z,66.60
2023-02-04T01:51:38.202Z,66.70
2023-02-04T01:54:06.969Z,66.80
2023-02-04T01:56:35.411Z,66.80
2023-02-04T01:59:03.733Z,66.80
2023-02-04T02:01:37.356Z,66.90
2023-02-04T02:04:07.381Z,66.80
2023-02-04T02:06:36.037Z,66.80
2023-02-04T02:09:04.825Z,66.90
2023-02-04T02:11:33.964Z,66.90
2023-02-04T02:14:02.399Z,66.80
2023-02-04T02:16:30.734Z,66.80
2023-02-04T02:19:00.108Z,66.90
2023-02-04T02:21:35.124Z,66.80
2023-02-04T02:24:27.762Z,66.80
2023-02-04T02:26:57.786Z,66.80
2023-02-04T02:29:26.878Z,67.00
2023-02-04T02:31:57.420Z,67.10
2023-02-04T02:34:26.063Z,67.20
2023-02-04T02:36:54.645Z,67.20
2023-02-04T02:39:24.496Z,67.30
2023-02-04T02:41:52.907Z,67.40
2023-02-04T02:44:21.188Z,67.40
2023-02-04T02:46:50.182Z,67.40
2023-02-04T02:49:20.191Z,67.50
2023-02-04T02:51:49.072Z,67.60
2023-02-04T02:54:25.228Z,67.70
2023-02-04T02:56:54.309Z,67.70
2023-02-04T02:59:22.614Z,67.90
2023-02-04T03:01:54.047Z,67.80
2023-02-04T03:04:22.648Z,67.70
2023-02-04T03:06:51.814Z,67.80
2023-02-04T03:09:21.530Z,67.70
2023-02-04T03:11:51.203Z,67.70
2023-02-04T03:14:19.803Z,67.70
2023-02-04T03:16:49.499Z,67.80
2023-02-04T03:19:17.850Z,67.80
2023-02-04T03:21:47.539Z,67.80
2023-02-04T03:24:15.994Z,67.90
2023-02-04T03:26:44.334Z,67.90
2023-02-04T03:29:13.944Z,67.90
2023-02-04T03:31:42.303Z,67.80
2023-02-04T03:34:10.548Z,67.80
2023-02-04T03:36:38.775Z,67.80
2023-02-04T03:39:07.034Z,67.90
2023-02-04T03:41:35.237Z,67.80
2023-02-04T03:44:03.464Z,67.80
2023-02-04T03:46:33.127Z,67.80
2023-02-04T03:49:01.433Z,67.70
2023-02-04T03:51:29.662Z,67.70
2023-02-04T03:53:57.838Z,67.60
2023-02-04T03:56:26.220Z,67.50
2023-02-04T03:58:54.459Z,67.60
2023-02-04T04:01:22.711Z,67.70
2023-02-04T04:03:52.307Z,67.80
2023-02-04T04:06:20.507Z,67.80
2023-02-04T04:08:48.682Z,67.90
2023-02-04T04:11:17.131Z,68.00
2023-02-04T04:13:45.399Z,68.10
2023-02-04T04:16:13.646Z,68.10
2023-02-04T04:18:41.942Z,68.10
2023-02-04T04:21:11.547Z,68.20
2023-02-04T04:23:39.938Z,68.20
2023-02-04T04:26:08.160Z,68.20
2023-02-04T04:28:36.379Z,68.30
2023-02-04T04:31:04.732Z,68.30
2023-02-04T04:33:33.070Z,68.30
2023-02-04T04:36:01.366Z,68.30
2023-02-04T04:38:31.011Z,68.40
2023-02-04T04:40:59.270Z,68.40
2023-02-04T04:43:27.483Z,68.50
2023-02-04T04:45:55.716Z,68.50
2023-02-04T04:48:25.135Z,68.50
2023-02-04T04:50:53.418Z,68.40
2023-02-04T04:53:21.676Z,68.50
2023-02-04T04:55:51.309Z,68.50
2023-02-04T04:58:19.566Z,68.30
2023-02-04T05:00:48.276Z,68.30
2023-02-04T05:03:16.562Z,68.40
2023-02-04T05:05:44.785Z,68.50
2023-02-04T05:08:16.932Z,68.70
2023-02-04T05:10:45.977Z,68.90
2023-02-04T05:13:16.154Z,69.10
2023-02-04T05:15:44.390Z,69.10
2023-02-04T05:18:12.558Z,69.20
2023-02-04T05:20:40.736Z,69.20
2023-02-04T05:23:08.960Z,69.30
2023-02-04T05:25:37.167Z,69.30
2023-02-04T05:28:05.966Z,69.30
2023-02-04T05:30:35.877Z,69.30
2023-02-04T05:33:04.114Z,69.40
2023-02-04T05:35:32.321Z,69.50
2023-02-04T05:38:00.600Z,69.50
2023-02-04T05:40:29.218Z,69.60
2023-02-04T05:42:57.545Z,69.60
2023-02-04T05:45:25.860Z,69.70
2023-02-04T05:47:55.494Z,69.70
2023-02-04T05:50:23.862Z,69.80
2023-02-04T05:52:52.192Z,69.80
2023-02-04T05:55:20.430Z,69.90
2023-02-04T05:57:52.285Z,70.00
2023-02-04T06:00:21.273Z,70.00
2023-02-04T06:02:49.513Z,70.00
2023-02-04T06:05:19.692Z,70.10
2023-02-04T06:07:48.029Z,70.10
2023-02-04T06:10:16.739Z,70.20
2023-02-04T06:12:44.939Z,70.30
2023-02-04T06:15:13.170Z,70.30
2023-02-04T06:17:41.781Z,70.30
2023-02-04T06:20:12.010Z,70.30
2023-02-04T06:22:41.660Z,70.40
2023-02-04T06:25:10.119Z,70.40
2023-02-04T06:27:38.438Z,70.40
2023-02-04T06:30:07.325Z,70.50
2023-02-04T06:32:35.541Z,70.60
2023-02-04T06:35:03.750Z,70.70
2023-02-04T06:37:32.083Z,70.90
2023-02-04T06:40:01.744Z,71.00
2023-02-04T06:42:29.930Z,71.00
2023-02-04T06:44:58.174Z,70.90
2023-02-04T06:47:26.427Z,71.00
2023-02-04T06:49:54.634Z,71.20
2023-02-04T06:52:22.882Z,71.60
2023-02-04T06:54:51.066Z,71.90
2023-02-04T06:57:23.781Z,72.00
2023-02-04T06:59:51.975Z,72.10
2023-02-04T07:02:20.202Z,72.10
2023-02-04T07:04:49.356Z,72.30
2023-02-04T07:07:17.590Z,72.40
2023-02-04T07:09:45.765Z,72.60
2023-02-04T07:12:16.483Z,72.70
2023-02-04T07:14:46.105Z,72.60
2023-02-04T07:17:14.290Z,72.80
2023-02-04T07:19:42.502Z,72.90
2023-02-04T07:22:10.713Z,73.10
2023-02-04T07:24:39.000Z,73.10
2023-02-04T07:27:07.304Z,73.10
2023-02-04T07:29:35.481Z,73.30
2023-02-04T07:32:05.241Z,73.30
2023-02-04T07:34:33.767Z,73.50
2023-02-04T07:37:02.011Z,73.60
2023-02-04T07:39:30.183Z,73.60
2023-02-04T07:41:58.379Z,73.60
2023-02-04T07:44:26.669Z,73.60
2023-02-04T07:46:54.895Z,73.60
2023-02-04T07:49:24.490Z,73.60
2023-02-04T07:51:52.917Z,73.60
2023-02-04T07:54:21.114Z,73.60
2023-02-04T07:56:49.382Z,73.60
2023-02-04T07:59:17.618Z,73.50
2023-02-04T08:01:45.979Z,73.40
2023-02-04T08:04:14.320Z,73.50
2023-02-04T08:06:43.887Z,73.40
2023-02-04T08:09:12.188Z,73.50
2023-02-04T08:11:40.497Z,73.40
2023-02-04T08:14:08.809Z,73.50
2023-02-04T08:16:37.021Z,73.50
2023-02-04T08:19:06.157Z,73.60
2023-02-04T08:21:34.371Z,73.60
2023-02-04T08:24:05.379Z,73.60
2023-02-04T08:26:33.657Z,73.80
2023-02-04T08:29:01.875Z,73.70
2023-02-04T08:31:30.259Z,73.60
2023-02-04T08:33:58.590Z,73.60
2023-02-04T08:36:27.261Z,73.70
2023-02-04T08:38:55.460Z,73.90
2023-02-04T08:41:25.213Z,74.00
2023-02-04T08:43:53.463Z,74.20
2023-02-04T08:46:22.177Z,74.20
2023-02-04T08:48:50.444Z,74.30
2023-02-04T08:51:19.612Z,74.40
2023-02-04T08:53:47.905Z,74.60
2023-02-04T08:56:19.212Z,74.70
2023-02-04T08:58:49.125Z,74.80
2023-02-04T09:01:17.492Z,75.00
2023-02-04T09:03:45.766Z,75.00
2023-02-04T09:06:14.290Z,74.90
2023-02-04T09:08:43.996Z,74.50
2023-02-04T09:11:12.435Z,74.00
2023-02-04T09:13:41.100Z,73.70
2023-02-04T09:16:10.928Z,73.50
2023-02-04T09:18:39.167Z,73.30
2023-02-04T09:21:07.580Z,73.10
2023-02-04T09:23:35.801Z,73.00
2023-02-04T09:26:04.566Z,72.90
2023-02-04T09:28:33.299Z,72.80
2023-02-04T09:31:03.669Z,72.60
2023-02-04T09:33:34.510Z,72.40
2023-02-04T09:36:03.283Z,72.30
2023-02-04T09:38:32.545Z,72.30
2023-02-04T09:41:04.123Z,73.00
2023-02-04T09:43:35.839Z,72.10
2023-02-04T09:46:04.587Z,71.90
2023-02-04T09:48:34.469Z,71.70
2023-02-04T09:51:09.885Z,71.30
2023-02-04T09:53:39.437Z,71.00
2023-02-04T09:56:10.440Z,71.00
2023-02-04T09:58:38.714Z,70.90
2023-02-04T10:01:15.089Z,70.90
2023-02-04T10:03:47.636Z,70.60
2023-02-04T10:06:17.517Z,71.00
2023-02-04T10:08:47.014Z,70.90
2023-02-04T10:11:17.399Z,70.50
2023-02-04T10:13:50.302Z,70.30
2023-02-04T10:16:21.174Z,70.10
2023-02-04T10:19:02.894Z,70.00
2023-02-04T10:21:33.286Z,69.50
2023-02-04T10:24:03.692Z,69.40
2023-02-04T10:26:33.512Z,69.40
2023-02-04T10:29:03.406Z,69.50
2023-02-04T10:31:37.902Z,69.30
2023-02-04T10:34:16.833Z,69.20
2023-02-04T10:36:49.340Z,69.00
2023-02-04T10:39:22.786Z,69.00
2023-02-04T10:41:52.427Z,68.80
2023-02-04T10:44:27.665Z,68.70
2023-02-04T10:47:01.266Z,68.60
2023-02-04T10:49:31.077Z,68.40
2023-02-04T10:51:59.284Z,68.70
2023-02-04T10:54:30.387Z,68.60
2023-02-04T10:57:04.410Z,68.40
2023-02-04T10:59:33.195Z,68.50
2023-02-04T11:02:03.971Z,68.60
2023-02-04T11:04:33.735Z,68.70
2023-02-04T11:07:01.959Z,68.60
2023-02-04T11:09:30.379Z,68.80
2023-02-04T11:12:00.421Z,68.90
2023-02-04T11:14:31.074Z,68.80
2023-02-04T11:17:01.045Z,69.10
2023-02-04T11:19:37.131Z,69.40
2023-02-04T11:22:22.945Z,69.10
2023-02-04T11:24:51.780Z,68.80
2023-02-04T11:27:24.244Z,68.50
2023-02-04T11:29:52.914Z,67.00
2023-02-04T11:32:33.159Z,66.50
2023-02-04T11:35:28.778Z,64.30
2023-02-04T11:37:57.820Z,63.80
2023-02-04T11:40:32.222Z,64.90
2023-02-04T11:43:05.208Z,65.00
2023-02-04T11:45:36.172Z,64.30
2023-02-04T11:48:11.427Z,64.10
2023-02-04T11:50:41.724Z,63.50
2023-02-04T11:53:12.196Z,63.10
2023-02-04T11:55:47.677Z,63.40
2023-02-04T11:58:18.095Z,62.80
2023-02-04T12:00:48.717Z,62.90
2023-02-04T12:03:26.033Z,63.00
2023-02-04T12:05:56.252Z,62.30
2023-02-04T12:08:32.472Z,62.90
2023-02-04T12:11:05.430Z,62.40
2023-02-04T12:13:34.338Z,62.60
2023-02-04T12:16:04.303Z,62.30
2023-02-04T12:18:33.999Z,62.30
2023-02-04T12:21:04.472Z,62.30
2023-02-04T12:23:33.036Z,60.90
2023-02-04T12:26:01.624Z,58.60
2023-02-04T12:28:29.938Z,58.70
2023-02-04T12:30:59.908Z,57.40
2023-02-04T12:33:28.690Z,57.20
2023-02-04T12:35:56.932Z,57.10
2023-02-04T12:38:27.710Z,57.30
2023-02-04T12:40:55.955Z,57.30
2023-02-04T12:43:27.239Z,57.70
2023-02-04T12:45:56.323Z,58.00
2023-02-04T12:48:26.115Z,58.20
2023-02-04T12:50:54.524Z,58.40
2023-02-04T12:53:22.854Z,58.90
2023-02-04T12:55:52.541Z,59.20
2023-02-04T12:58:20.757Z,59.30
2023-02-04T13:00:49.143Z,59.80
2023-02-04T13:03:19.232Z,59.90
2023-02-04T13:05:47.537Z,59.90
2023-02-04T13:08:15.871Z,60.00
2023-02-04T13:10:44.141Z,60.20
2023-02-04T13:13:13.785Z,60.50
2023-02-04T13:15:41.959Z,60.40
2023-02-04T13:18:10.477Z,60.90
2023-02-04T13:20:38.813Z,60.90
2023-02-04T13:23:07.081Z,60.70
2023-02-04T13:25:35.765Z,60.50
2023-02-04T13:28:04.101Z,60.80
2023-02-04T13:30:33.955Z,61.20
2023-02-04T13:33:02.278Z,60.90
2023-02-04T13:35:30.894Z,60.90
2023-02-04T13:37:59.356Z,61.10
2023-02-04T13:40:27.622Z,61.20
2023-02-04T13:42:55.860Z,61.20
2023-02-04T13:45:24.188Z,61.00
2023-02-04T13:47:53.910Z,61.00
2023-02-04T13:50:22.214Z,61.10
2023-02-04T13:52:55.331Z,61.80
2023-02-04T13:55:24.546Z,61.60
2023-02-04T13:57:52.842Z,61.60
2023-02-04T14:00:21.625Z,60.90
2023-02-04T14:02:49.941Z,60.70
2023-02-04T14:05:19.782Z,60.40
2023-02-04T14:07:48.106Z,60.20
2023-02-04T14:10:16.918Z,60.40
2023-02-04T14:12:45.398Z,60.60
2023-02-04T14:15:16.990Z,60.80
2023-02-04T14:17:45.296Z,61.40
2023-02-04T14:20:14.090Z,61.50
2023-02-04T14:22:43.780Z,61.60
2023-02-04T14:25:12.078Z,61.50
2023-02-04T14:27:42.623Z,61.70
2023-02-04T14:30:19.163Z,61.80
2023-02-04T14:32:47.886Z,61.40
2023-02-04T14:35:16.646Z,61.40
2023-02-04T14:37:46.844Z,61.50
2023-02-04T14:40:16.860Z,62.00
2023-02-04T14:42:45.451Z,62.20
2023-02-04T14:45:15.525Z,62.10
2023-02-04T14:47:44.999Z,61.50
2023-02-04T14:50:18.431Z,61.10
2023-02-04T14:52:49.088Z,60.80
2023-02-04T14:55:19.756Z,60.70
2023-02-04T14:57:48.492Z,60.70
2023-02-04T15:00:19.818Z,60.80
2023-02-04T15:02:48.863Z,60.60
2023-02-04T15:05:19.749Z,60.70
2023-02-04T15:07:49.870Z,60.80
2023-02-04T15:10:18.184Z,60.80
2023-02-04T15:12:46.673Z,61.00
2023-02-04T15:15:15.778Z,60.90
2023-02-04T15:17:44.048Z,61.10
2023-02-04T15:20:14.755Z,60.80
2023-02-04T15:22:45.800Z,60.60
2023-02-04T15:25:15.934Z,60.80
2023-02-04T15:27:44.737Z,60.90
2023-02-04T15:30:13.499Z,61.20
2023-02-04T15:32:42.937Z,61.20
2023-02-04T15:35:14.450Z,61.10
2023-02-04T15:37:42.703Z,60.70
2023-02-04T15:40:13.255Z,60.90
2023-02-04T15:42:43.229Z,60.70
2023-02-04T15:45:11.548Z,60.60
2023-02-04T15:47:39.801Z,60.80
2023-02-04T15:50:10.990Z,60.70
2023-02-04T15:52:39.265Z,60.60
2023-02-04T15:55:08.129Z,60.50
2023-02-04T15:57:37.131Z,60.50
2023-02-04T16:00:08.342Z,60.60
2023-02-04T16:02:38.498Z,60.70
2023-02-04T16:05:07.586Z,60.80
2023-02-04T16:07:36.182Z,60.90
2023-02-04T16:10:04.603Z,61.10
2023-02-04T16:12:32.871Z,61.30
2023-02-04T16:15:01.243Z,61.50
2023-02-04T16:17:30.937Z,62.40
2023-02-04T16:19:59.202Z,61.70
2023-02-04T16:22:27.452Z,62.60
2023-02-04T16:24:55.741Z,62.10
2023-02-04T16:27:24.015Z,62.30
2023-02-04T16:29:52.277Z,62.40
2023-02-04T16:32:21.111Z,62.60
2023-02-04T16:34:52.624Z,62.60
2023-02-04T16:37:21.245Z,62.80
2023-02-04T16:39:51.587Z,62.80
2023-02-04T16:42:20.206Z,63.00
2023-02-04T16:44:48.593Z,63.10
2023-02-04T16:47:16.940Z,63.10
2023-02-04T16:49:45.973Z,63.30
2023-02-04T16:52:15.815Z,63.20
2023-02-04T16:54:44.503Z,63.10
2023-02-04T16:57:14.678Z,63.10
2023-02-04T16:59:43.006Z,63.30
2023-02-04T17:02:11.980Z,63.50
2023-02-04T17:04:40.189Z,63.90
2023-02-04T17:07:08.660Z,64.10
2023-02-04T17:09:38.465Z,64.30
2023-02-04T17:12:07.377Z,64.30
2023-02-04T17:14:35.637Z,64.30
2023-02-04T17:17:03.878Z,64.20
2023-02-04T17:19:32.128Z,64.10
2023-02-04T17:22:00.943Z,64.10
2023-02-04T17:24:29.175Z,64.20
2023-02-04T17:27:00.619Z,64.50
2023-02-04T17:29:28.939Z,64.90
2023-02-04T17:31:57.533Z,65.10
2023-02-04T17:34:26.344Z,66.00
2023-02-04T17:36:55.152Z,65.50
2023-02-04T17:39:23.386Z,65.50
2023-02-04T17:41:51.669Z,65.70
2023-02-04T17:44:24.821Z,65.70
2023-02-04T17:46:54.155Z,65.90
2023-02-04T17:49:22.432Z,66.00
2023-02-04T17:51:50.682Z,66.30
2023-02-04T17:54:19.019Z,66.60
2023-02-04T17:56:47.259Z,66.70
2023-02-04T17:59:15.494Z,66.70
2023-02-04T18:01:45.284Z,66.70
2023-02-04T18:04:14.488Z,66.60
2023-02-04T18:06:42.778Z,66.60
2023-02-04T18:09:16.404Z,66.60
2023-02-04T18:11:45.140Z,66.60
2023-02-04T18:14:16.802Z,66.60
2023-02-04T18:16:46.900Z,66.80
2023-02-04T18:19:20.451Z,67.00
2023-02-04T18:21:51.266Z,67.30
2023-02-04T18:24:23.831Z,68.00
2023-02-04T18:26:54.327Z,67.30
2023-02-04T18:29:34.836Z,67.40
2023-02-04T18:32:13.352Z,67.60
2023-02-04T18:34:44.268Z,67.50
2023-02-04T18:37:30.774Z,67.50
2023-02-04T18:40:25.629Z,67.70
2023-02-04T18:43:06.652Z,67.80
2023-02-04T18:45:36.633Z,67.50
2023-02-04T18:48:56.495Z,67.40
2023-02-04T18:51:29.307Z,67.60
2023-02-04T18:54:03.613Z,67.40
2023-02-04T18:56:37.752Z,67.30
2023-02-04T18:59:18.662Z,67.20
2023-02-04T19:01:48.995Z,67.40
2023-02-04T19:04:26.570Z,67.40
2023-02-04T19:06:56.919Z,67.50
2023-02-04T19:09:30.411Z,67.50
2023-02-04T19:11:59.848Z,67.50
2023-02-04T19:14:34.878Z,67.40
2023-02-04T19:17:23.274Z,67.40
2023-02-04T19:20:03.755Z,67.40
2023-02-04T19:22:43.462Z,67.30
2023-02-04T19:25:29.663Z,67.30
2023-02-04T19:27:59.518Z,67.60
2023-02-04T19:30:50.819Z,67.50
2023-02-04T19:33:26.519Z,67.80
2023-02-04T19:35:56.324Z,67.70
2023-02-04T19:38:43.242Z,67.80
2023-02-04T19:41:25.704Z,67.90
2023-02-04T19:43:58.422Z,67.80
2023-02-04T19:46:27.858Z,67.80
2023-02-04T19:48:57.965Z,68.00
2023-02-04T19:51:30.142Z,68.10
2023-02-04T19:54:03.810Z,68.10
2023-02-04T19:56:36.211Z,68.30
2023-02-04T19:59:24.448Z,68.30
2023-02-04T20:02:04.159Z,68.40
2023-02-04T20:04:37.145Z,68.20
2023-02-04T20:07:19.652Z,67.90
2023-02-04T20:09:48.099Z,68.00
2023-02-04T20:12:18.202Z,68.00
2023-02-04T20:14:49.403Z,68.30
2023-02-04T20:17:40.046Z,68.40
2023-02-04T20:20:23.861Z,68.50
2023-02-04T20:22:58.143Z,68.30
2023-02-04T20:25:37.589Z,68.20
2023-02-04T20:28:31.006Z,68.30
2023-02-04T20:31:01.619Z,68.30
2023-02-04T20:33:48.140Z,68.30
2023-02-04T20:36:40.898Z,68.40
2023-02-04T20:39:31.501Z,68.70
2023-02-04T20:42:26.302Z,68.80
2023-02-04T20:44:55.663Z,68.70
2023-02-04T20:47:25.907Z,68.50
2023-02-04T20:49:56.949Z,68.60
2023-02-04T20:53:02.718Z,68.80
2023-02-04T20:55:34.350Z,69.00
2023-02-04T20:58:23.514Z,68.80
2023-02-04T21:00:54.144Z,68.80
2023-02-04T21:03:31.315Z,68.90
2023-02-04T21:06:01.133Z,69.00
2023-02-04T21:08:38.708Z,68.70
2023-02-04T21:11:14.111Z,68.50
2023-02-04T21:13:42.699Z,68.50
2023-02-04T21:16:11.278Z,68.50
2023-02-04T21:18:39.950Z,68.30
2023-02-04T21:21:09.886Z,68.30
2023-02-04T21:23:38.635Z,68.40
2023-02-04T21:26:09.452Z,68.30
2023-02-04T21:28:37.809Z,68.30
2023-02-04T21:31:06.461Z,68.40
2023-02-04T21:33:35.985Z,68.50
2023-02-04T21:36:04.478Z,68.60
2023-02-04T21:38:32.788Z,68.70
2023-02-04T21:41:01.489Z,68.80
2023-02-04T21:43:31.311Z,68.90
2023-02-04T21:46:00.547Z,69.00
2023-02-04T21:48:29.088Z,69.10
2023-02-04T21:50:57.375Z,69.10
2023-02-04T21:53:28.667Z,69.20
2023-02-04T21:55:59.282Z,69.30
2023-02-04T21:58:27.728Z,69.50
2023-02-04T22:00:57.390Z,69.40
2023-02-04T22:03:25.669Z,69.40
2023-02-04T22:05:54.095Z,69.40
2023-02-04T22:08:22.980Z,69.30
2023-02-04T22:10:51.297Z,69.30
2023-02-04T22:13:19.601Z,69.20
2023-02-04T22:15:49.057Z,69.30
2023-02-04T22:18:20.445Z,69.30
2023-02-04T22:20:48.656Z,69.30
2023-02-04T22:23:17.563Z,69.20
2023-02-04T22:25:45.729Z,69.20
2023-02-04T22:28:15.656Z,69.10
2023-02-04T22:30:43.976Z,69.10
2023-02-04T22:33:14.211Z,69.10
2023-02-04T22:35:43.882Z,69.10
2023-02-04T22:38:12.066Z,69.20
2023-02-04T22:40:40.296Z,69.20
2023-02-04T22:43:08.535Z,69.20
2023-02-04T22:45:36.751Z,69.00
2023-02-04T22:48:05.098Z,68.90
2023-02-04T22:50:33.478Z,68.80
2023-02-04T22:53:03.097Z,68.80
2023-02-04T22:55:31.417Z,68.80
2023-02-04T22:57:59.742Z,68.70
2023-02-04T23:00:28.058Z,68.70
2023-02-04T23:02:56.269Z,68.70
2023-02-04T23:05:24.584Z,68.60
2023-02-04T23:07:52.855Z,68.70
2023-02-04T23:10:22.550Z,68.70
2023-02-04T23:12:50.768Z,68.70
2023-02-04T23:15:19.286Z,68.70
2023-02-04T23:17:47.549Z,68.70
2023-02-04T23:20:15.978Z,68.80
2023-02-04T23:22:44.230Z,68.80
2023-02-04T23:25:12.631Z,68.80
2023-02-04T23:27:42.427Z,68.80
2023-02-04T23:30:11.614Z,68.70
2023-02-04T23:32:39.854Z,68.70
2023-02-04T23:35:08.546Z,68.60
2023-02-04T23:37:37.190Z,68.60
2023-02-04T23:40:06.460Z,68.70
2023-02-04T23:42:34.744Z,68.70
2023-02-04T23:45:04.567Z,68.80
2023-02-04T23:47:32.835Z,68.80
2023-02-04T23:50:01.110Z,68.90
2023-02-04T23:52:29.448Z,69.00
2023-02-04T23:54:57.842Z,69.10
2023-02-04T23:57:26.198Z,69.20
2023-02-04T23:59:54.414Z,69.20
